createdAt,value
2023-02-19T00:00:20.263Z,8.44
2023-02-19T00:01:22.023Z,8.44
2023-02-19T00:02:23.741Z,8.44
2023-02-19T00:03:25.490Z,8.43
2023-02-19T00:04:27.208Z,8.44
2023-02-19T00:05:28.931Z,8.44
2023-02-19T00:06:30.665Z,8.44
2023-02-19T00:07:32.393Z,8.44
2023-02-19T00:08:34.147Z,8.44
2023-02-19T00:09:35.864Z,8.45
2023-02-19T00:10:37.598Z,8.45
2023-02-19T00:11:39.330Z,8.44
2023-02-19T00:12:41.069Z,8.45
2023-02-19T00:13:42.809Z,8.45
2023-02-19T00:14:44.532Z,8.46
2023-02-19T00:15:46.309Z,8.44
2023-02-19T00:16:47.983Z,8.45
2023-02-19T00:17:49.706Z,8.44
2023-02-19T00:18:51.445Z,8.42
2023-02-19T00:19:53.167Z,8.42
2023-02-19T00:20:54.898Z,8.41
2023-02-19T00:21:56.617Z,8.41
2023-02-19T00:22:58.359Z,8.4
2023-02-19T00:24:00.142Z,8.4
2023-02-19T00:25:01.811Z,8.41
2023-02-19T00:26:17.292Z,8.41
2023-02-19T00:27:05.289Z,8.41
2023-02-19T00:28:07.016Z,8.41
2023-02-19T00:29:08.794Z,8.41
2023-02-19T00:30:10.556Z,8.41
2023-02-19T00:31:12.660Z,8.4
2023-02-19T00:32:14.033Z,8.39
2023-02-19T00:33:15.693Z,8.39
2023-02-19T00:34:17.444Z,8.4
2023-02-19T00:35:19.158Z,8.39
2023-02-19T00:36:20.958Z,8.4
2023-02-19T00:37:22.635Z,8.39
2023-02-19T00:38:24.385Z,8.4
2023-02-19T00:39:26.111Z,8.4
2023-02-19T00:40:27.833Z,8.4
2023-02-19T00:41:29.564Z,8.42
2023-02-19T00:42:31.317Z,8.43
2023-02-19T00:43:33.028Z,8.43
2023-02-19T00:44:34.792Z,8.44
2023-02-19T00:45:36.505Z,8.46
2023-02-19T00:46:38.376Z,8.46
2023-02-19T00:47:39.974Z,8.47
2023-02-19T00:48:41.719Z,8.47
2023-02-19T00:49:43.476Z,8.48
2023-02-19T00:50:45.160Z,8.48
2023-02-19T00:51:46.911Z,8.48
2023-02-19T00:52:48.637Z,8.49
2023-02-19T00:53:50.382Z,8.5
2023-02-19T00:54:52.120Z,8.5
2023-02-19T00:55:53.847Z,8.5
2023-02-19T00:56:55.568Z,8.49
2023-02-19T00:57:57.342Z,8.49
2023-02-19T00:58:59.045Z,8.48
2023-02-19T01:00:00.781Z,8.46
2023-02-19T01:01:02.539Z,8.45
2023-02-19T01:02:04.235Z,8.45
2023-02-19T01:03:05.994Z,8.44
2023-02-19T01:04:07.730Z,8.41
2023-02-19T01:05:09.459Z,8.4
2023-02-19T01:06:11.180Z,8.38
2023-02-19T01:07:12.913Z,8.38
2023-02-19T01:08:14.654Z,8.38
2023-02-19T01:09:16.394Z,8.37
2023-02-19T01:10:18.109Z,8.37
2023-02-19T01:11:19.848Z,8.37
2023-02-19T01:12:21.584Z,8.37
2023-02-19T01:13:23.324Z,8.38
2023-02-19T01:14:25.044Z,8.37
2023-02-19T01:15:26.786Z,8.37
2023-02-19T01:16:28.647Z,8.38
2023-02-19T01:17:30.256Z,8.37
2023-02-19T01:18:31.984Z,8.38
2023-02-19T01:19:33.732Z,8.39
2023-02-19T01:20:35.449Z,8.4
2023-02-19T01:21:37.206Z,8.4
2023-02-19T01:22:38.924Z,8.41
2023-02-19T01:23:40.668Z,8.4
2023-02-19T01:24:42.398Z,8.41
2023-02-19T01:25:44.119Z,8.42
2023-02-19T01:26:45.854Z,8.42
2023-02-19T01:27:47.589Z,8.43
2023-02-19T01:28:49.347Z,8.44
2023-02-19T01:29:51.091Z,8.44
2023-02-19T01:30:52.865Z,8.45
2023-02-19T01:31:54.591Z,8.46
2023-02-19T01:32:56.264Z,8.46
2023-02-19T01:33:58.002Z,8.46
2023-02-19T01:34:59.739Z,8.47
2023-02-19T01:36:01.471Z,8.47
2023-02-19T01:37:03.205Z,8.48
2023-02-19T01:38:04.942Z,8.48
2023-02-19T01:39:06.672Z,8.48
2023-02-19T01:40:08.400Z,8.48
2023-02-19T01:41:10.425Z,8.48
2023-02-19T01:42:11.887Z,8.5
2023-02-19T01:43:13.624Z,8.49
2023-02-19T01:44:15.374Z,8.49
2023-02-19T01:45:17.076Z,8.49
2023-02-19T01:46:18.822Z,8.49
2023-02-19T01:47:20.574Z,8.49
2023-02-19T01:48:22.277Z,8.48
2023-02-19T01:49:24.032Z,8.48
2023-02-19T01:50:25.746Z,8.48
2023-02-19T01:51:27.483Z,8.48
2023-02-19T01:52:29.213Z,8.49
2023-02-19T01:53:30.947Z,8.49
2023-02-19T01:54:32.658Z,8.5
2023-02-19T01:55:34.379Z,8.5
2023-02-19T01:56:36.112Z,8.49
2023-02-19T01:57:37.824Z,8.49
2023-02-19T01:58:39.572Z,8.49
2023-02-19T01:59:41.299Z,8.49
2023-02-19T02:00:43.079Z,8.5
2023-02-19T02:01:44.831Z,8.5
2023-02-19T02:02:46.502Z,8.49
2023-02-19T02:03:48.239Z,8.5
2023-02-19T02:04:49.973Z,8.49
2023-02-19T02:05:51.698Z,8.5
2023-02-19T02:06:53.444Z,8.49
2023-02-19T02:07:55.182Z,8.49
2023-02-19T02:08:56.902Z,8.49
2023-02-19T02:09:58.657Z,8.49
2023-02-19T02:11:00.382Z,8.49
2023-02-19T02:12:02.104Z,8.5
2023-02-19T02:13:03.865Z,8.5
2023-02-19T02:14:05.588Z,8.5
2023-02-19T02:15:07.323Z,8.5
2023-02-19T02:16:09.107Z,8.49
2023-02-19T02:17:10.786Z,8.49
2023-02-19T02:18:12.520Z,8.5
2023-02-19T02:19:14.247Z,8.5
2023-02-19T02:20:15.968Z,8.5
2023-02-19T02:21:17.726Z,8.5
2023-02-19T02:22:19.457Z,8.5
2023-02-19T02:23:21.182Z,8.49
2023-02-19T02:24:22.920Z,8.5
2023-02-19T02:25:24.651Z,8.49
2023-02-19T02:26:26.367Z,8.5
2023-02-19T02:27:28.120Z,8.49
2023-02-19T02:28:29.860Z,8.49
2023-02-19T02:29:31.589Z,8.49
2023-02-19T02:30:33.366Z,8.5
2023-02-19T02:31:35.107Z,8.5
2023-02-19T02:32:36.777Z,8.49
2023-02-19T02:33:38.531Z,8.51
2023-02-19T02:34:40.236Z,8.5
2023-02-19T02:35:41.980Z,8.49
2023-02-19T02:36:43.721Z,8.5
2023-02-19T02:37:45.451Z,8.51
2023-02-19T02:38:47.226Z,8.5
2023-02-19T02:39:48.920Z,8.5
2023-02-19T02:40:50.658Z,8.5
2023-02-19T02:41:52.389Z,8.5
2023-02-19T02:42:54.119Z,8.5
2023-02-19T02:43:55.866Z,8.51
2023-02-19T02:44:57.589Z,8.5
2023-02-19T02:45:59.355Z,8.5
2023-02-19T02:47:01.066Z,8.5
2023-02-19T02:48:02.787Z,8.49
2023-02-19T02:49:04.529Z,8.49
2023-02-19T02:50:06.279Z,8.49
2023-02-19T02:51:08.059Z,8.49
2023-02-19T02:52:09.719Z,8.5
2023-02-19T02:53:11.499Z,8.49
2023-02-19T02:54:13.208Z,8.49
2023-02-19T02:55:14.930Z,8.49
2023-02-19T02:56:16.663Z,8.49
2023-02-19T02:57:18.379Z,8.48
2023-02-19T02:58:20.126Z,8.48
2023-02-19T02:59:21.863Z,8.48
2023-02-19T03:00:23.601Z,8.47
2023-02-19T03:01:25.463Z,8.48
2023-02-19T03:02:27.095Z,8.48
2023-02-19T03:03:28.799Z,8.47
2023-02-19T03:04:30.533Z,8.48
2023-02-19T03:05:32.279Z,8.47
2023-02-19T03:06:33.997Z,8.47
2023-02-19T03:07:35.722Z,8.48
2023-02-19T03:08:37.461Z,8.47
2023-02-19T03:09:39.193Z,8.47
2023-02-19T03:10:40.944Z,8.48
2023-02-19T03:11:42.685Z,8.48
2023-02-19T03:12:44.399Z,8.48
2023-02-19T03:13:46.146Z,8.49
2023-02-19T03:14:47.877Z,8.5
2023-02-19T03:15:49.610Z,8.49
2023-02-19T03:16:51.437Z,8.49
2023-02-19T03:17:53.074Z,8.49
2023-02-19T03:18:54.802Z,8.5
2023-02-19T03:19:56.556Z,8.49
2023-02-19T03:20:58.270Z,8.48
2023-02-19T03:22:00.018Z,8.48
2023-02-19T03:23:01.742Z,8.47
2023-02-19T03:24:03.481Z,8.46
2023-02-19T03:25:05.227Z,8.45
2023-02-19T03:26:06.958Z,8.44
2023-02-19T03:27:08.678Z,8.41
2023-02-19T03:28:10.411Z,8.4
2023-02-19T03:29:12.172Z,8.39
2023-02-19T03:30:13.930Z,8.39
2023-02-19T03:31:15.728Z,8.38
2023-02-19T03:32:17.398Z,8.37
2023-02-19T03:33:19.078Z,8.36
2023-02-19T03:34:20.777Z,8.35
2023-02-19T03:35:22.502Z,8.34
2023-02-19T03:36:24.221Z,8.34
2023-02-19T03:37:26.153Z,8.32
2023-02-19T03:38:27.696Z,8.32
2023-02-19T03:39:29.429Z,8.32
2023-02-19T03:40:31.159Z,8.3
2023-02-19T03:41:32.912Z,8.31
2023-02-19T03:42:34.637Z,8.29
2023-02-19T03:43:36.409Z,8.29
2023-02-19T03:44:38.106Z,8.29
2023-02-19T03:45:39.865Z,8.27
2023-02-19T03:46:41.577Z,8.28
2023-02-19T03:47:43.303Z,8.28
2023-02-19T03:48:45.044Z,8.27
2023-02-19T03:49:49.023Z,8.27
2023-02-19T03:50:48.512Z,8.27
2023-02-19T03:51:50.268Z,8.26
2023-02-19T03:52:51.971Z,8.27
2023-02-19T03:53:53.719Z,8.27
2023-02-19T03:54:55.439Z,8.28
2023-02-19T03:55:57.346Z,8.28
2023-02-19T03:56:58.908Z,8.27
2023-02-19T03:58:00.659Z,8.27
2023-02-19T03:59:02.532Z,8.26
2023-02-19T04:00:04.132Z,8.27
2023-02-19T04:01:05.844Z,8.26
2023-02-19T04:02:07.598Z,8.26
2023-02-19T04:03:09.309Z,8.25
2023-02-19T04:04:11.048Z,8.25
2023-02-19T04:05:14.153Z,8.24
2023-02-19T04:06:14.515Z,8.23
2023-02-19T04:07:16.256Z,8.23
2023-02-19T04:08:17.993Z,8.23
2023-02-19T04:09:19.716Z,8.23
2023-02-19T04:10:21.461Z,8.23
2023-02-19T04:11:23.186Z,8.23
2023-02-19T04:12:24.925Z,8.23
2023-02-19T04:13:26.658Z,8.24
2023-02-19T04:14:28.394Z,8.23
2023-02-19T04:15:30.131Z,8.23
2023-02-19T04:16:31.877Z,8.23
2023-02-19T04:17:33.585Z,8.22
2023-02-19T04:18:35.341Z,8.24
2023-02-19T04:19:37.058Z,8.23
2023-02-19T04:20:38.785Z,8.23
2023-02-19T04:21:40.531Z,8.22
2023-02-19T04:22:42.260Z,8.22
2023-02-19T04:23:43.995Z,8.21
2023-02-19T04:24:45.732Z,8.22
2023-02-19T04:25:47.449Z,8.2
2023-02-19T04:26:49.208Z,8.2
2023-02-19T04:27:50.940Z,8.21
2023-02-19T04:28:52.665Z,8.22
2023-02-19T04:29:54.404Z,8.22
2023-02-19T04:30:56.222Z,8.24
2023-02-19T04:31:57.895Z,8.24
2023-02-19T04:32:59.592Z,8.25
2023-02-19T04:34:01.326Z,8.26
2023-02-19T04:35:03.066Z,8.27
2023-02-19T04:36:04.780Z,8.29
2023-02-19T04:37:06.526Z,8.31
2023-02-19T04:38:08.254Z,8.31
2023-02-19T04:39:09.986Z,8.33
2023-02-19T04:40:11.728Z,8.33
2023-02-19T04:41:13.449Z,8.34
2023-02-19T04:42:15.181Z,8.35
2023-02-19T04:43:16.919Z,8.35
2023-02-19T04:44:18.664Z,8.37
2023-02-19T04:45:20.390Z,8.37
2023-02-19T04:46:22.154Z,8.38
2023-02-19T04:47:23.860Z,8.39
2023-02-19T04:48:25.591Z,8.41
2023-02-19T04:49:27.320Z,8.4
2023-02-19T04:50:29.085Z,8.41
2023-02-19T04:51:30.787Z,8.41
2023-02-19T04:52:32.531Z,8.42
2023-02-19T04:53:34.261Z,8.42
2023-02-19T04:54:36.010Z,8.42
2023-02-19T04:55:37.723Z,8.42
2023-02-19T04:56:39.451Z,8.43
2023-02-19T04:57:41.202Z,8.42
2023-02-19T04:58:42.939Z,8.42
2023-02-19T04:59:44.663Z,8.42
2023-02-19T05:00:46.491Z,8.44
2023-02-19T05:01:48.153Z,8.43
2023-02-19T05:02:49.856Z,8.42
2023-02-19T05:03:51.610Z,8.43
2023-02-19T05:04:53.346Z,8.41
2023-02-19T05:05:55.057Z,8.4
2023-02-19T05:06:56.811Z,8.4
2023-02-19T05:07:58.527Z,8.38
2023-02-19T05:09:00.252Z,8.38
2023-02-19T05:10:01.983Z,8.36
2023-02-19T05:11:03.695Z,8.35
2023-02-19T05:12:05.426Z,8.33
2023-02-19T05:13:07.145Z,8.32
2023-02-19T05:14:08.996Z,8.29
2023-02-19T05:15:10.639Z,8.26
2023-02-19T05:16:12.381Z,8.23
2023-02-19T05:17:14.090Z,8.19
2023-02-19T05:18:15.823Z,8.16
2023-02-19T05:19:17.545Z,8.14
2023-02-19T05:20:19.291Z,8.1
2023-02-19T05:21:21.086Z,8.06
2023-02-19T05:22:22.765Z,8.04
2023-02-19T05:23:24.498Z,8
2023-02-19T05:24:26.219Z,7.97
2023-02-19T05:25:27.959Z,7.94
2023-02-19T05:26:29.885Z,7.93
2023-02-19T05:27:31.423Z,7.89
2023-02-19T05:28:33.163Z,7.86
2023-02-19T05:29:34.892Z,7.86
2023-02-19T05:30:36.644Z,7.83
2023-02-19T05:31:38.481Z,7.82
2023-02-19T05:32:40.101Z,7.81
2023-02-19T05:33:41.840Z,7.79
2023-02-19T05:34:43.572Z,7.78
2023-02-19T05:35:45.314Z,7.78
2023-02-19T05:36:47.050Z,7.77
2023-02-19T05:37:48.777Z,7.78
2023-02-19T05:38:50.521Z,7.78
2023-02-19T05:39:52.244Z,7.79
2023-02-19T05:40:53.976Z,7.83
2023-02-19T05:41:55.708Z,7.85
2023-02-19T05:42:57.444Z,7.87
2023-02-19T05:43:59.189Z,7.91
2023-02-19T05:45:00.911Z,7.93
2023-02-19T05:46:02.670Z,7.94
2023-02-19T05:47:04.368Z,7.95
2023-02-19T05:48:06.104Z,7.96
2023-02-19T05:49:07.843Z,7.95
2023-02-19T05:50:09.585Z,7.96
2023-02-19T05:51:11.572Z,7.96
2023-02-19T05:52:13.044Z,7.96
2023-02-19T05:53:14.767Z,7.95
2023-02-19T05:54:16.511Z,7.94
2023-02-19T05:55:18.236Z,7.94
2023-02-19T05:56:19.963Z,7.93
2023-02-19T05:57:21.711Z,7.93
2023-02-19T05:58:23.442Z,7.92
2023-02-19T05:59:25.191Z,7.9
2023-02-19T06:00:26.929Z,7.88
2023-02-19T06:01:28.657Z,7.88
2023-02-19T06:02:30.412Z,7.87
2023-02-19T06:03:32.140Z,7.86
2023-02-19T06:04:33.852Z,7.86
2023-02-19T06:05:35.734Z,7.86
2023-02-19T06:06:37.315Z,7.85
2023-02-19T06:07:39.062Z,7.85
2023-02-19T06:08:40.772Z,7.84
2023-02-19T06:09:42.543Z,7.85
2023-02-19T06:10:44.271Z,7.84
2023-02-19T06:11:45.996Z,7.84
2023-02-19T06:12:47.714Z,7.83
2023-02-19T06:13:49.446Z,7.84
2023-02-19T06:14:51.183Z,7.84
2023-02-19T06:15:52.968Z,7.84
2023-02-19T06:16:54.649Z,7.84
2023-02-19T06:17:56.394Z,7.84
2023-02-19T06:18:58.127Z,7.84
2023-02-19T06:19:59.864Z,7.84
2023-02-19T06:21:01.576Z,7.84
2023-02-19T06:22:03.316Z,7.85
2023-02-19T06:23:05.051Z,7.86
2023-02-19T06:24:06.792Z,7.86
2023-02-19T06:25:08.539Z,7.86
2023-02-19T06:26:10.264Z,7.88
2023-02-19T06:27:11.982Z,7.88
2023-02-19T06:28:13.720Z,7.89
2023-02-19T06:29:15.472Z,7.9
2023-02-19T06:30:17.242Z,7.9
2023-02-19T06:31:19.086Z,7.91
2023-02-19T06:32:20.876Z,7.91
2023-02-19T06:33:22.369Z,7.89
2023-02-19T06:34:24.142Z,7.89
2023-02-19T06:35:25.873Z,7.88
2023-02-19T06:36:27.605Z,7.87
2023-02-19T06:37:29.329Z,7.85
2023-02-19T06:38:31.054Z,7.84
2023-02-19T06:39:32.889Z,7.82
2023-02-19T06:40:34.542Z,7.8
2023-02-19T06:41:36.268Z,7.78
2023-02-19T06:42:37.999Z,7.78
2023-02-19T06:43:39.732Z,7.77
2023-02-19T06:44:41.465Z,7.76
2023-02-19T06:45:43.181Z,7.75
2023-02-19T06:46:44.983Z,7.75
2023-02-19T06:47:46.641Z,7.75
2023-02-19T06:48:48.369Z,7.75
2023-02-19T06:49:50.092Z,7.76
2023-02-19T06:50:51.836Z,7.76
2023-02-19T06:51:53.555Z,7.76
2023-02-19T06:52:55.302Z,7.77
2023-02-19T06:53:57.039Z,7.78
2023-02-19T06:54:58.774Z,7.78
2023-02-19T06:56:00.529Z,7.81
2023-02-19T06:57:02.271Z,7.81
2023-02-19T06:58:03.982Z,7.84
2023-02-19T06:59:05.704Z,7.85
2023-02-19T07:00:07.441Z,7.88
2023-02-19T07:01:09.803Z,7.91
2023-02-19T07:02:10.909Z,7.93
2023-02-19T07:03:12.650Z,7.96
2023-02-19T07:04:14.420Z,7.99
2023-02-19T07:05:16.127Z,8.02
2023-02-19T07:06:17.853Z,8.04
2023-02-19T07:07:19.591Z,8.07
2023-02-19T07:08:21.318Z,8.11
2023-02-19T07:09:23.105Z,8.13
2023-02-19T07:10:24.778Z,8.15
2023-02-19T07:11:26.564Z,8.18
2023-02-19T07:12:30.346Z,8.21
2023-02-19T07:13:35.139Z,8.23
2023-02-19T07:14:36.860Z,8.25
2023-02-19T07:15:38.596Z,8.25
2023-02-19T07:16:40.392Z,8.28
2023-02-19T07:17:42.049Z,8.29
2023-02-19T07:18:43.789Z,8.3
2023-02-19T07:19:45.529Z,8.31
2023-02-19T07:20:47.256Z,8.32
2023-02-19T07:21:49.001Z,8.32
2023-02-19T07:22:50.909Z,8.33
2023-02-19T07:23:52.470Z,8.34
2023-02-19T07:24:54.199Z,8.34
2023-02-19T07:25:55.930Z,8.35
2023-02-19T07:26:57.660Z,8.35
2023-02-19T07:27:59.413Z,8.36
2023-02-19T07:29:01.135Z,8.36
2023-02-19T07:30:02.931Z,8.36
2023-02-19T07:31:04.646Z,8.36
2023-02-19T07:32:06.363Z,8.36
2023-02-19T07:33:10.452Z,8.38
2023-02-19T07:34:09.811Z,8.38
2023-02-19T07:35:11.551Z,8.39
2023-02-19T07:36:13.306Z,8.38
2023-02-19T07:37:14.997Z,8.38
2023-02-19T07:38:16.755Z,8.38
2023-02-19T07:39:18.474Z,8.38
2023-02-19T07:40:20.219Z,8.37
2023-02-19T07:41:21.935Z,8.38
2023-02-19T07:42:23.682Z,8.36
2023-02-19T07:43:25.425Z,8.36
2023-02-19T07:44:28.389Z,8.35
2023-02-19T07:45:29.025Z,8.34
2023-02-19T07:46:32.029Z,8.34
2023-02-19T07:47:32.524Z,8.34
2023-02-19T07:48:34.262Z,8.35
2023-02-19T07:49:37.322Z,8.38
2023-02-19T07:50:41.847Z,8.4
2023-02-19T07:51:44.604Z,8.42
2023-02-19T07:52:46.337Z,8.45
2023-02-19T07:53:48.081Z,8.47
2023-02-19T07:54:49.811Z,8.49
2023-02-19T07:55:51.532Z,8.51
2023-02-19T07:56:53.285Z,8.53
2023-02-19T07:57:55.020Z,8.55
2023-02-19T07:58:56.736Z,8.56
2023-02-19T07:59:58.465Z,8.57
2023-02-19T08:01:00.297Z,8.58
2023-02-19T08:02:01.955Z,8.59
2023-02-19T08:03:03.712Z,8.6
2023-02-19T08:04:05.414Z,8.61
2023-02-19T08:05:07.153Z,8.62
2023-02-19T08:06:08.884Z,8.61
2023-02-19T08:07:10.596Z,8.61
2023-02-19T08:08:12.359Z,8.63
2023-02-19T08:09:14.907Z,8.63
2023-02-19T08:10:16.661Z,8.64
2023-02-19T08:11:18.400Z,8.65
2023-02-19T08:12:20.130Z,8.67
2023-02-19T08:13:21.861Z,8.69
2023-02-19T08:14:23.601Z,8.7
2023-02-19T08:15:25.327Z,8.72
2023-02-19T08:16:41.977Z,8.73
2023-02-19T08:17:28.815Z,8.74
2023-02-19T08:18:30.541Z,8.76
2023-02-19T08:19:32.287Z,8.77
2023-02-19T08:20:34.007Z,8.78
2023-02-19T08:21:35.747Z,8.8
2023-02-19T08:22:37.495Z,8.82
2023-02-19T08:23:39.191Z,8.84
2023-02-19T08:24:40.943Z,8.84
2023-02-19T08:25:42.668Z,8.86
2023-02-19T08:26:44.405Z,8.87
2023-02-19T08:27:46.148Z,8.88
2023-02-19T08:28:47.840Z,8.89
2023-02-19T08:29:49.562Z,8.91
2023-02-19T08:30:51.407Z,8.92
2023-02-19T08:31:53.077Z,8.94
2023-02-19T08:32:54.747Z,8.95
2023-02-19T08:33:56.507Z,8.96
2023-02-19T08:34:58.212Z,8.98
2023-02-19T08:35:59.957Z,8.99
2023-02-19T08:37:01.666Z,9.01
2023-02-19T08:38:03.409Z,9.03
2023-02-19T08:39:05.278Z,9.07
2023-02-19T08:40:06.878Z,9.1
2023-02-19T08:41:08.921Z,9.14
2023-02-19T08:42:10.410Z,9.18
2023-02-19T08:43:13.290Z,9.22
2023-02-19T08:44:13.812Z,9.25
2023-02-19T08:45:15.557Z,9.28
2023-02-19T08:46:17.338Z,9.32
2023-02-19T08:47:19.018Z,9.34
2023-02-19T08:48:20.745Z,9.37
2023-02-19T08:49:22.488Z,9.4
2023-02-19T08:50:24.374Z,9.42
2023-02-19T08:51:25.973Z,9.45
2023-02-19T08:52:27.711Z,9.46
2023-02-19T08:53:29.412Z,9.48
2023-02-19T08:54:31.163Z,9.5
2023-02-19T08:55:32.879Z,9.52
2023-02-19T08:56:34.608Z,9.53
2023-02-19T08:57:36.355Z,9.55
2023-02-19T08:58:38.104Z,9.57
2023-02-19T08:59:39.820Z,9.58
2023-02-19T09:00:41.549Z,9.59
2023-02-19T09:01:43.307Z,9.6
2023-02-19T09:02:45.013Z,9.6
2023-02-19T09:03:46.788Z,9.6
2023-02-19T09:04:48.497Z,9.59
2023-02-19T09:05:50.212Z,9.6
2023-02-19T09:06:51.965Z,9.61
2023-02-19T09:07:53.704Z,9.6
2023-02-19T09:08:55.446Z,9.61
2023-02-19T09:09:57.240Z,9.62
2023-02-19T09:10:58.884Z,9.63
2023-02-19T09:12:00.618Z,9.64
2023-02-19T09:13:02.356Z,9.65
2023-02-19T09:14:04.101Z,9.67
2023-02-19T09:15:05.816Z,9.67
2023-02-19T09:16:07.620Z,9.69
2023-02-19T09:17:09.299Z,9.72
2023-02-19T09:18:11.120Z,9.74
2023-02-19T09:19:12.779Z,9.76
2023-02-19T09:20:14.485Z,9.77
2023-02-19T09:21:16.279Z,9.8
2023-02-19T09:22:17.954Z,9.84
2023-02-19T09:23:21.042Z,9.87
2023-02-19T09:24:21.438Z,9.89
2023-02-19T09:25:23.171Z,9.92
2023-02-19T09:26:24.904Z,9.93
2023-02-19T09:27:26.637Z,9.96
2023-02-19T09:28:28.349Z,9.97
2023-02-19T09:29:30.085Z,9.99
2023-02-19T09:30:31.868Z,10
2023-02-19T09:31:33.662Z,10
2023-02-19T09:32:35.309Z,10.04
2023-02-19T09:33:37.142Z,10.08
2023-02-19T09:34:38.771Z,10.15
2023-02-19T09:35:40.566Z,10.22
2023-02-19T09:36:42.217Z,10.38
2023-02-19T09:37:43.958Z,10.54
2023-02-19T09:38:45.705Z,10.63
2023-02-19T09:39:47.412Z,10.68
2023-02-19T09:40:49.153Z,10.71
2023-02-19T09:41:50.918Z,10.72
2023-02-19T09:42:52.639Z,10.72
2023-02-19T09:43:54.361Z,10.73
2023-02-19T09:44:56.113Z,10.7
2023-02-19T09:45:57.855Z,10.7
2023-02-19T09:46:59.570Z,10.65
2023-02-19T09:48:01.314Z,10.61
2023-02-19T09:49:03.047Z,10.59
2023-02-19T09:50:04.776Z,10.57
2023-02-19T09:51:06.562Z,10.54
2023-02-19T09:52:08.237Z,10.51
2023-02-19T09:53:09.972Z,10.47
2023-02-19T09:54:11.715Z,10.46
2023-02-19T09:55:13.462Z,10.45
2023-02-19T09:56:15.165Z,10.44
2023-02-19T09:57:16.901Z,10.45
2023-02-19T09:58:18.641Z,10.44
2023-02-19T09:59:20.356Z,10.45
2023-02-19T10:00:22.099Z,10.44
2023-02-19T10:02:08.934Z,10.44
2023-02-19T10:03:13.750Z,10.44
2023-02-19T10:04:15.446Z,10.44
2023-02-19T10:05:17.297Z,10.45
2023-02-19T10:06:18.885Z,10.47
2023-02-19T10:07:20.613Z,10.5
2023-02-19T10:08:22.344Z,10.5
2023-02-19T10:09:24.057Z,10.51
2023-02-19T10:10:25.861Z,10.54
2023-02-19T10:11:27.510Z,10.56
2023-02-19T10:12:29.254Z,10.57
2023-02-19T10:13:30.990Z,10.59
2023-02-19T10:14:32.713Z,10.6
2023-02-19T10:15:34.479Z,10.6
2023-02-19T10:16:36.204Z,10.59
2023-02-19T10:17:37.972Z,10.58
2023-02-19T10:18:39.676Z,10.57
2023-02-19T10:19:42.476Z,10.58
2023-02-19T10:20:43.116Z,10.58
2023-02-19T10:21:46.105Z,10.59
2023-02-19T10:22:46.594Z,10.6
2023-02-19T10:23:48.327Z,10.59
2023-02-19T10:24:50.069Z,10.57
2023-02-19T10:25:51.799Z,10.54
2023-02-19T10:26:53.523Z,10.54
2023-02-19T10:27:55.279Z,10.53
2023-02-19T10:28:56.984Z,10.54
2023-02-19T10:29:58.781Z,10.52
2023-02-19T10:31:00.569Z,10.52
2023-02-19T10:32:02.256Z,10.5
2023-02-19T10:33:27.752Z,10.46
2023-02-19T10:34:29.494Z,10.44
2023-02-19T10:35:32.429Z,10.42
2023-02-19T10:36:35.653Z,10.38
2023-02-19T10:37:38.023Z,10.34
2023-02-19T10:38:42.909Z,10.27
2023-02-19T10:39:43.383Z,10.17
2023-02-19T10:40:45.096Z,10.09
2023-02-19T10:41:46.849Z,9.99
2023-02-19T10:42:48.561Z,9.89
2023-02-19T10:43:50.303Z,9.8
2023-02-19T10:44:52.040Z,9.72
2023-02-19T10:45:53.770Z,9.67
2023-02-19T10:46:55.544Z,9.62
2023-02-19T10:47:57.226Z,9.6
2023-02-19T10:49:00.078Z,9.59
2023-02-19T10:50:03.298Z,9.57
2023-02-19T10:51:02.441Z,9.56
2023-02-19T10:52:04.187Z,9.54
2023-02-19T10:53:05.897Z,9.5
2023-02-19T10:54:07.645Z,9.47
2023-02-19T10:55:09.388Z,9.41
2023-02-19T10:56:11.127Z,9.35
2023-02-19T10:57:12.846Z,9.31
2023-02-19T10:58:14.566Z,9.24
2023-02-19T10:59:16.298Z,9.19
2023-02-19T11:00:18.143Z,9.12
2023-02-19T11:01:19.871Z,9.1
2023-02-19T11:02:21.525Z,9.04
2023-02-19T11:03:23.244Z,9.01
2023-02-19T11:04:24.997Z,8.99
2023-02-19T11:05:26.734Z,8.96
2023-02-19T11:06:28.451Z,8.93
2023-02-19T11:07:30.183Z,8.92
2023-02-19T11:08:31.915Z,9.07
2023-02-19T11:09:33.656Z,9.3
2023-02-19T11:10:35.384Z,9.5
2023-02-19T11:11:37.100Z,9.67
2023-02-19T11:12:38.845Z,9.9
2023-02-19T11:13:40.581Z,10.11
2023-02-19T11:14:42.314Z,10.1
2023-02-19T11:15:44.065Z,10.15
2023-02-19T11:16:45.783Z,10.22
2023-02-19T11:17:47.524Z,10.21
2023-02-19T11:18:49.246Z,10.23
2023-02-19T11:19:50.985Z,10.28
2023-02-19T11:20:52.743Z,10.32
2023-02-19T11:21:54.466Z,10.48
2023-02-19T11:22:56.203Z,10.63
2023-02-19T11:23:57.914Z,10.62
2023-02-19T11:24:59.645Z,10.62
2023-02-19T11:26:01.410Z,10.66
2023-02-19T11:27:03.115Z,10.64
2023-02-19T11:28:04.850Z,10.64
2023-02-19T11:29:06.590Z,10.78
2023-02-19T11:30:08.410Z,10.78
2023-02-19T11:31:11.000Z,10.75
2023-02-19T11:32:11.967Z,10.72
2023-02-19T11:33:13.519Z,10.7
2023-02-19T11:34:15.238Z,10.68
2023-02-19T11:35:17.005Z,10.66
2023-02-19T11:36:18.731Z,10.68
2023-02-19T11:37:20.466Z,10.71
2023-02-19T11:38:22.200Z,10.75
2023-02-19T11:39:23.939Z,10.77
2023-02-19T11:40:25.650Z,10.79
2023-02-19T11:41:27.408Z,10.8
2023-02-19T11:42:29.638Z,10.8
2023-02-19T11:43:30.866Z,10.8
2023-02-19T11:44:32.599Z,10.77
2023-02-19T11:45:34.329Z,10.75
2023-02-19T11:46:36.165Z,10.71
2023-02-19T11:47:37.781Z,10.67
2023-02-19T11:48:39.512Z,10.64
2023-02-19T11:49:41.242Z,10.59
2023-02-19T11:50:42.983Z,10.57
2023-02-19T11:51:47.620Z,10.55
2023-02-19T11:52:46.426Z,10.54
2023-02-19T11:53:49.892Z,10.53
2023-02-19T11:54:49.880Z,10.51
2023-02-19T11:55:51.649Z,10.48
2023-02-19T11:56:53.355Z,10.41
2023-02-19T11:57:55.087Z,10.35
2023-02-19T11:58:57.968Z,10.28
2023-02-19T11:59:58.547Z,10.23
2023-02-19T12:01:00.304Z,10.17
2023-02-19T12:02:02.177Z,10.12
2023-02-19T12:03:03.778Z,10.1
2023-02-19T12:04:09.600Z,10.09
2023-02-19T12:05:10.145Z,10.09
2023-02-19T12:06:17.442Z,10.1
2023-02-19T12:07:18.663Z,10.1
2023-02-19T12:08:20.379Z,10.08
2023-02-19T12:09:22.146Z,10.06
2023-02-19T12:10:23.864Z,10.03
2023-02-19T12:11:25.591Z,10.02
2023-02-19T12:12:27.326Z,10.02
2023-02-19T12:13:29.057Z,10.04
2023-02-19T12:14:30.781Z,10.07
2023-02-19T12:15:32.511Z,10.11
2023-02-19T12:16:34.302Z,10.17
2023-02-19T12:17:39.908Z,10.22
2023-02-19T12:23:38.464Z,10.54
2023-02-19T12:29:41.157Z,10.65
2023-02-19T12:30:42.895Z,10.66
2023-02-19T12:31:44.629Z,10.7
2023-02-19T12:32:51.590Z,10.73
2023-02-19T12:33:53.201Z,10.78
2023-02-19T12:34:54.938Z,10.82
2023-02-19T12:35:56.680Z,10.85
2023-02-19T12:36:58.408Z,10.87
2023-02-19T12:38:00.122Z,10.87
2023-02-19T12:39:01.863Z,10.89
2023-02-19T12:40:03.606Z,10.92
2023-02-19T12:41:05.350Z,10.95
2023-02-19T12:42:07.334Z,10.98
2023-02-19T12:43:08.894Z,10.99
2023-02-19T12:44:10.643Z,11.03
2023-02-19T12:45:12.369Z,11.06
2023-02-19T12:46:14.650Z,11.09
2023-02-19T12:47:15.880Z,11.13
2023-02-19T12:48:17.593Z,11.16
2023-02-19T12:49:19.321Z,11.19
2023-02-19T12:50:21.066Z,11.21
2023-02-19T12:51:22.783Z,11.25
2023-02-19T12:52:24.499Z,11.25
2023-02-19T12:53:26.271Z,11.27
2023-02-19T12:54:27.966Z,11.28
2023-02-19T12:55:29.736Z,11.29
2023-02-19T12:56:31.480Z,11.3
2023-02-19T12:57:33.163Z,11.32
2023-02-19T12:58:34.908Z,11.34
2023-02-19T13:00:30.913Z,11.33
2023-02-19T13:01:43.270Z,11.32
2023-02-19T13:02:48.660Z,11.32
2023-02-19T13:03:49.723Z,11.32
2023-02-19T13:05:09.866Z,11.31
2023-02-19T13:06:13.912Z,11.28
2023-02-19T13:07:28.780Z,11.27
2023-02-19T13:09:05.469Z,11.2
2023-02-19T13:09:52.901Z,11.19
2023-02-19T13:10:54.655Z,11.13
2023-02-19T13:11:56.316Z,11.08
2023-02-19T13:12:58.068Z,11.05
2023-02-19T13:13:59.807Z,11.01
2023-02-19T13:15:01.537Z,10.96
2023-02-19T13:16:03.280Z,10.91
2023-02-19T13:17:05.090Z,10.88
2023-02-19T13:18:06.732Z,10.87
2023-02-19T13:19:08.477Z,10.86
2023-02-19T13:20:10.251Z,10.85
2023-02-19T13:21:12.361Z,10.85
2023-02-19T13:22:13.685Z,10.84
2023-02-19T13:23:20.859Z,10.82
2023-02-19T13:24:22.379Z,10.83
2023-02-19T13:25:24.012Z,10.84
2023-02-19T13:26:25.772Z,10.86
2023-02-19T13:27:31.815Z,10.88
2023-02-19T13:28:35.392Z,10.9
2023-02-19T13:29:36.228Z,10.91
2023-02-19T13:30:37.986Z,10.93
2023-02-19T13:31:39.781Z,10.94
2023-02-19T13:32:41.403Z,10.95
2023-02-19T13:33:43.031Z,10.98
2023-02-19T13:34:44.786Z,10.99
2023-02-19T13:35:46.497Z,11
2023-02-19T13:36:48.223Z,11.04
2023-02-19T13:37:49.965Z,11.06
2023-02-19T13:38:51.688Z,11.08
2023-02-19T13:39:53.435Z,11.1
2023-02-19T13:40:55.175Z,11.11
2023-02-19T13:41:56.878Z,11.13
2023-02-19T13:42:58.621Z,11.14
2023-02-19T13:44:00.378Z,11.15
2023-02-19T13:45:02.119Z,11.16
2023-02-19T13:46:03.902Z,11.19
2023-02-19T13:47:05.548Z,11.2
2023-02-19T13:48:07.309Z,11.23
2023-02-19T13:49:09.016Z,11.25
2023-02-19T13:50:11.327Z,11.26
2023-02-19T13:51:12.897Z,11.26
2023-02-19T13:52:14.210Z,11.27